createdAt,value
2019-02-16T00:01:06.739Z,19.83
2019-02-16T00:03:36.179Z,23.50
2019-02-16T00:06:05.622Z,19.33
2019-02-16T00:08:35.077Z,15.47
2019-02-16T00:11:04.490Z,15.87
2019-02-16T00:13:34.293Z,15.17
2019-02-16T00:16:03.702Z,14.50
2019-02-16T00:18:33.244Z,20.07
2019-02-16T00:21:04.244Z,16.53
2019-02-16T00:23:33.893Z,15.90
2019-02-16T00:26:03.399Z,18.17
2019-02-16T00:28:32.903Z,13.60
2019-02-16T00:31:02.409Z,15.80
2019-02-16T00:33:31.918Z,16.27
2019-02-16T00:36:01.336Z,16.20
2019-02-16T00:38:30.880Z,16.87
2019-02-16T00:41:00.278Z,19.53
2019-02-16T00:43:29.698Z,19.73
2019-02-16T00:45:59.187Z,18.73
2019-02-16T00:48:28.709Z,15.10
2019-02-16T00:50:58.114Z,15.17
2019-02-16T00:53:27.550Z,19.37
2019-02-16T00:55:56.966Z,15.23
2019-02-16T00:58:26.387Z,15.07
2019-02-16T01:00:55.849Z,12.87
2019-02-16T01:03:25.362Z,16.33
2019-02-16T01:05:54.778Z,16.43
2019-02-16T01:08:24.266Z,13.27
2019-02-16T01:10:53.686Z,15.47
2019-02-16T01:13:23.110Z,18.07
2019-02-16T01:15:52.525Z,12.53
2019-02-16T01:18:21.948Z,16.03
2019-02-16T01:20:51.378Z,17.40
2019-02-16T01:23:20.779Z,14.23
2019-02-16T01:25:50.205Z,17.57
2019-02-16T01:28:19.740Z,19.97
2019-02-16T01:30:49.250Z,20.23
2019-02-16T01:33:18.713Z,18.97
2019-02-16T01:35:48.190Z,19.67
2019-02-16T01:38:17.626Z,15.77
2019-02-16T01:40:47.133Z,15.10
2019-02-16T01:43:16.563Z,19.20
2019-02-16T01:45:45.986Z,17.63
2019-02-16T01:48:15.394Z,17.47
2019-02-16T01:50:44.958Z,17.40
2019-02-16T01:53:14.367Z,19.50
2019-02-16T01:55:43.883Z,16.87
2019-02-16T01:58:13.295Z,16.00
2019-02-16T02:00:42.715Z,17.70
2019-02-16T02:03:12.166Z,18.73
2019-02-16T02:05:41.733Z,16.97
2019-02-16T02:08:11.216Z,16.43
2019-02-16T02:10:40.635Z,18.87
2019-02-16T02:13:10.430Z,21.23
2019-02-16T02:15:39.858Z,17.33
2019-02-16T02:18:09.279Z,16.83
2019-02-16T02:20:38.738Z,18.37
2019-02-16T02:23:08.154Z,18.57
2019-02-16T02:25:37.646Z,17.90
2019-02-16T02:28:07.170Z,18.60
2019-02-16T02:30:36.598Z,23.00
2019-02-16T02:33:06.095Z,18.27
2019-02-16T02:35:35.600Z,18.63
2019-02-16T02:38:05.011Z,18.77
2019-02-16T02:40:34.446Z,21.17
2019-02-16T02:43:04.126Z,15.63
2019-02-16T02:45:33.583Z,17.97
2019-02-16T02:48:02.986Z,16.37
2019-02-16T02:50:32.422Z,17.23
2019-02-16T02:53:01.867Z,16.87
2019-02-16T02:55:31.300Z,21.00
2019-02-16T02:58:00.694Z,17.10
2019-02-16T03:00:30.300Z,18.33
2019-02-16T03:02:59.755Z,18.03
2019-02-16T03:05:29.293Z,18.57
2019-02-16T03:07:58.708Z,17.13
2019-02-16T03:10:28.159Z,15.43
2019-02-16T03:12:57.597Z,16.00
2019-02-16T03:15:27.011Z,15.50
2019-02-16T03:17:56.506Z,19.07
2019-02-16T03:20:25.926Z,17.20
2019-02-16T03:23:11.262Z,14.97
2019-02-16T03:25:41.171Z,17.63
2019-02-16T03:28:19.679Z,16.50
2019-02-16T03:31:08.227Z,15.47
2019-02-16T03:33:43.509Z,12.67
2019-02-16T03:36:31.306Z,15.17
2019-02-16T03:39:08.589Z,16.20
2019-02-16T03:41:38.031Z,17.57
2019-02-16T03:44:07.485Z,17.43
2019-02-16T03:46:36.910Z,15.63
2019-02-16T03:49:06.421Z,17.03
2019-02-16T03:51:35.944Z,15.37
2019-02-16T03:54:05.364Z,15.50
2019-02-16T03:56:34.786Z,13.00
2019-02-16T03:59:04.199Z,15.07
2019-02-16T04:01:33.700Z,12.80
2019-02-16T04:04:03.219Z,14.57
2019-02-16T04:06:32.880Z,13.00
2019-02-16T04:09:03.291Z,15.60
2019-02-16T04:11:32.747Z,14.73
2019-02-16T04:14:02.248Z,14.87
2019-02-16T04:16:31.754Z,15.53
2019-02-16T04:19:01.178Z,15.53
2019-02-16T04:21:30.586Z,14.87
2019-02-16T04:24:00.002Z,17.73
2019-02-16T04:26:29.428Z,16.43
2019-02-16T04:28:58.907Z,14.40
2019-02-16T04:31:28.346Z,12.50
2019-02-16T04:33:57.768Z,13.67
2019-02-16T04:36:27.185Z,16.93
2019-02-16T04:38:56.631Z,14.53
2019-02-16T04:41:26.077Z,14.80
2019-02-16T04:43:55.499Z,18.50
2019-02-16T04:46:24.935Z,12.60
2019-02-16T04:48:54.397Z,19.23
2019-02-16T04:51:23.850Z,16.43
2019-02-16T04:53:53.264Z,16.23
2019-02-16T04:56:22.683Z,14.67
2019-02-16T04:58:52.096Z,14.10
2019-02-16T05:01:21.577Z,15.27
2019-02-16T05:06:20.748Z,14.80
2019-02-16T05:08:50.148Z,14.90
2019-02-16T05:11:19.593Z,12.97
2019-02-16T05:13:48.991Z,15.87
2019-02-16T05:16:18.383Z,14.77
2019-02-16T05:18:47.819Z,18.00
2019-02-16T05:21:17.257Z,16.07
2019-02-16T05:23:46.669Z,16.60
2019-02-16T05:26:16.079Z,15.70
2019-02-16T05:28:45.496Z,14.13
2019-02-16T05:31:14.881Z,15.63
2019-02-16T05:33:44.327Z,13.50
2019-02-16T05:36:13.725Z,13.73
2019-02-16T05:38:43.154Z,12.33
2019-02-16T05:41:12.828Z,12.93
2019-02-16T05:43:42.275Z,15.77
2019-02-16T05:46:11.686Z,12.60
2019-02-16T05:48:41.111Z,17.40
2019-02-16T05:51:10.502Z,15.43
2019-02-16T05:53:39.936Z,14.53
2019-02-16T05:56:09.402Z,14.30
2019-02-16T05:58:38.842Z,13.50
2019-02-16T06:01:08.239Z,12.97
2019-02-16T06:03:37.665Z,12.13
2019-02-16T06:06:07.066Z,12.57
2019-02-16T06:08:36.520Z,12.90
2019-02-16T06:11:06.161Z,15.00
2019-02-16T06:13:35.620Z,14.57
2019-02-16T06:16:05.305Z,12.53
2019-02-16T06:18:34.722Z,12.37
2019-02-16T06:21:04.129Z,14.27
2019-02-16T06:23:33.561Z,11.40
2019-02-16T06:26:03.068Z,13.50
2019-02-16T06:28:32.482Z,13.30
2019-02-16T06:31:01.891Z,13.83
2019-02-16T06:33:31.362Z,14.87
2019-02-16T06:36:08.573Z,13.97
2019-02-16T06:38:37.997Z,16.80
2019-02-16T06:41:07.404Z,12.27
2019-02-16T06:43:36.859Z,15.67
2019-02-16T06:46:06.263Z,15.17
2019-02-16T06:48:35.698Z,16.47
2019-02-16T06:51:05.100Z,14.40
2019-02-16T06:53:34.515Z,14.40
2019-02-16T06:56:15.084Z,16.77
2019-02-16T06:58:44.528Z,13.37
2019-02-16T07:01:14.013Z,12.83
2019-02-16T07:03:43.446Z,12.50
2019-02-16T07:06:12.850Z,14.70
2019-02-16T07:08:44.152Z,15.47
2019-02-16T07:11:13.354Z,15.63
2019-02-16T07:13:42.859Z,14.27
2019-02-16T07:16:35.002Z,12.63
2019-02-16T07:19:10.510Z,13.90
2019-02-16T07:21:39.946Z,14.20
2019-02-16T07:24:09.643Z,16.50
2019-02-16T07:26:39.042Z,18.70
2019-02-16T07:29:08.475Z,10.30
2019-02-16T07:31:37.942Z,13.20
2019-02-16T07:34:07.355Z,16.37
2019-02-16T07:36:37.044Z,15.43
2019-02-16T07:39:07.562Z,13.73
2019-02-16T07:41:37.010Z,13.37
2019-02-16T07:44:28.434Z,14.00
2019-02-16T07:47:16.698Z,14.63
2019-02-16T07:50:03.988Z,20.27
2019-02-16T07:52:50.470Z,14.10
2019-02-16T07:55:28.822Z,13.93
2019-02-16T07:58:26.434Z,15.40
2019-02-16T08:01:23.854Z,16.77
2019-02-16T08:04:02.966Z,16.43
2019-02-16T08:07:03.394Z,12.77
2019-02-16T08:09:51.961Z,14.87
2019-02-16T08:12:49.712Z,15.50
2019-02-16T08:15:50.266Z,15.57
2019-02-16T08:18:43.902Z,13.53
2019-02-16T08:21:41.733Z,13.47
2019-02-16T08:24:33.211Z,12.13
2019-02-16T08:27:20.478Z,14.53
2019-02-16T08:30:05.766Z,14.53
2019-02-16T08:32:57.090Z,14.27
2019-02-16T08:35:44.406Z,15.00
2019-02-16T08:38:31.998Z,14.03
2019-02-16T08:41:20.538Z,16.67
2019-02-16T08:44:12.854Z,14.50
2019-02-16T08:47:04.201Z,14.07
2019-02-16T08:50:04.643Z,14.17
2019-02-16T08:52:51.659Z,13.97
2019-02-16T08:55:36.590Z,13.43
2019-02-16T08:58:24.135Z,18.80
2019-02-16T09:01:11.212Z,14.53
2019-02-16T09:04:05.651Z,17.57
2019-02-16T09:06:43.452Z,15.53
2019-02-16T09:09:25.458Z,15.27
2019-02-16T09:12:09.126Z,13.67
2019-02-16T09:14:48.897Z,14.43
2019-02-16T09:17:28.287Z,14.93
2019-02-16T09:20:07.737Z,14.87
2019-02-16T09:22:45.410Z,16.67
2019-02-16T09:25:26.860Z,18.30
2019-02-16T09:28:03.125Z,14.13
2019-02-16T09:30:39.125Z,16.57
2019-02-16T09:33:34.154Z,17.77
2019-02-16T09:36:12.080Z,15.23
2019-02-16T09:38:49.743Z,16.57
2019-02-16T09:41:47.365Z,14.37
2019-02-16T09:44:22.799Z,16.43
2019-02-16T09:47:11.333Z,19.67
2019-02-16T09:50:12.092Z,18.83
2019-02-16T09:53:03.466Z,17.03
2019-02-16T09:56:00.985Z,20.37
2019-02-16T09:58:55.337Z,16.67
2019-02-16T10:01:46.698Z,16.60
2019-02-16T10:04:38.059Z,17.20
2019-02-16T10:07:35.381Z,21.63
2019-02-16T10:10:09.790Z,21.50
2019-02-16T10:12:49.443Z,19.27
2019-02-16T10:15:36.762Z,17.27
2019-02-16T10:18:40.494Z,18.67
2019-02-16T10:21:34.838Z,17.50
2019-02-16T10:24:17.539Z,17.27
2019-02-16T10:27:14.215Z,17.23
2019-02-16T10:30:05.582Z,21.20
2019-02-16T10:32:56.922Z,15.77
2019-02-16T10:35:51.380Z,23.73
2019-02-16T10:38:42.698Z,18.50
2019-02-16T10:41:29.726Z,18.43
2019-02-16T10:44:13.243Z,17.73
2019-02-16T10:47:00.497Z,17.27
2019-02-16T10:49:38.394Z,15.47
2019-02-16T10:52:28.518Z,16.07
2019-02-16T10:55:17.125Z,18.73
2019-02-16T10:58:11.630Z,16.83
2019-02-16T11:00:54.414Z,15.60
2019-02-16T11:03:42.950Z,16.93
2019-02-16T11:06:46.675Z,19.43
2019-02-16T11:09:26.106Z,18.90
2019-02-16T11:12:15.354Z,17.27
2019-02-16T11:15:15.757Z,29.43
2019-02-16T11:17:56.294Z,35.10
2019-02-16T11:20:39.778Z,41.27
2019-02-16T11:23:22.174Z,36.90
2019-02-16T11:26:16.642Z,26.27
2019-02-16T11:29:05.362Z,48.37
2019-02-16T11:31:54.350Z,29.33
2019-02-16T11:34:36.779Z,28.23
2019-02-16T11:37:11.170Z,31.27
2019-02-16T11:40:02.522Z,39.47
2019-02-16T11:42:37.318Z,25.93
2019-02-16T11:45:32.713Z,25.53
2019-02-16T11:48:27.138Z,31.10
2019-02-16T11:51:18.582Z,27.63
2019-02-16T11:54:19.069Z,21.90
2019-02-16T11:57:06.076Z,17.97
2019-02-16T12:00:03.758Z,22.90
2019-02-16T12:02:40.186Z,20.30
2019-02-16T12:05:31.502Z,22.60
2019-02-16T12:08:11.011Z,21.03
2019-02-16T12:11:05.789Z,22.43
2019-02-16T12:13:54.347Z,19.47
2019-02-16T12:16:43.183Z,20.50
2019-02-16T12:19:46.994Z,27.17
2019-02-16T12:22:44.769Z,20.43
2019-02-16T12:25:27.010Z,20.33
2019-02-16T12:28:18.406Z,21.33
2019-02-16T12:31:09.808Z,19.37
2019-02-16T12:34:01.462Z,59.10
2019-02-16T12:36:47.972Z,40.97
2019-02-16T12:39:54.826Z,93.83
2019-02-16T12:42:55.646Z,46.37
2019-02-16T12:45:50.870Z,44.50
2019-02-16T12:48:32.035Z,40.80
2019-02-16T12:51:29.761Z,31.07
2019-02-16T12:54:18.316Z,79.47
2019-02-16T12:56:52.717Z,100.53
2019-02-16T12:59:35.423Z,22.13
2019-02-16T13:02:18.493Z,19.47
2019-02-16T13:04:56.322Z,21.60
2019-02-16T13:07:50.827Z,28.20
2019-02-16T13:10:33.582Z,23.17
2019-02-16T13:13:28.220Z,23.13
2019-02-16T13:16:08.698Z,19.70
2019-02-16T13:18:51.186Z,25.97
2019-02-16T13:21:42.905Z,21.00
2019-02-16T13:24:31.444Z,21.77
2019-02-16T13:27:38.022Z,21.90
2019-02-16T13:30:14.825Z,24.00
2019-02-16T13:32:57.372Z,23.87
2019-02-16T13:35:45.890Z,26.27
2019-02-16T13:38:37.753Z,26.03
2019-02-16T13:41:25.481Z,18.53
2019-02-16T13:44:17.142Z,18.83
2019-02-16T13:47:05.731Z,21.20
2019-02-16T13:49:48.274Z,20.47
2019-02-16T13:52:23.220Z,18.70
2019-02-16T13:55:01.381Z,21.00
2019-02-16T13:57:47.406Z,21.67
2019-02-16T14:00:53.882Z,20.67
2019-02-16T14:03:38.056Z,20.83
2019-02-16T14:06:23.422Z,22.23
2019-02-16T14:09:10.363Z,21.80
2019-02-16T14:12:04.778Z,22.70
2019-02-16T14:14:40.449Z,18.63
2019-02-16T14:17:35.081Z,19.87
2019-02-16T14:20:04.692Z,20.50
2019-02-16T14:22:34.182Z,21.73
2019-02-16T14:25:05.478Z,20.43
2019-02-16T14:27:34.929Z,19.00
2019-02-16T14:30:04.447Z,20.17
2019-02-16T14:32:33.870Z,22.17
2019-02-16T14:35:03.280Z,24.07
2019-02-16T14:37:47.235Z,18.17
2019-02-16T14:40:16.648Z,23.40
2019-02-16T14:42:46.157Z,21.07
2019-02-16T14:45:15.646Z,19.40
2019-02-16T14:47:45.083Z,26.97
2019-02-16T14:50:14.501Z,60.90
2019-02-16T14:52:43.964Z,65.73
2019-02-16T14:55:13.590Z,30.50
2019-02-16T14:57:43.042Z,51.83
2019-02-16T15:00:12.570Z,45.93
2019-02-16T15:02:42.095Z,67.47
2019-02-16T15:05:11.506Z,31.53
2019-02-16T15:07:41.036Z,84.60
2019-02-16T15:10:10.463Z,35.27
2019-02-16T15:12:39.878Z,27.83
2019-02-16T15:15:09.604Z,32.83
2019-02-16T15:17:39.431Z,29.50
2019-02-16T15:20:09.796Z,21.63
2019-02-16T15:22:39.926Z,21.77
2019-02-16T15:25:10.757Z,20.87
2019-02-16T15:27:40.361Z,20.60
2019-02-16T15:30:11.060Z,20.93
2019-02-16T15:32:40.751Z,21.93
2019-02-16T15:35:10.439Z,26.73
2019-02-16T15:37:39.966Z,28.60
2019-02-16T15:40:09.451Z,22.53
2019-02-16T15:42:38.979Z,22.50
2019-02-16T15:45:09.587Z,20.47
2019-02-16T15:47:39.090Z,24.93
2019-02-16T15:50:09.070Z,25.33
2019-02-16T15:52:38.549Z,21.87
2019-02-16T15:55:08.737Z,22.80
2019-02-16T15:57:38.196Z,20.60
2019-02-16T16:00:10.798Z,22.67
2019-02-16T16:02:40.245Z,22.07
2019-02-16T16:05:09.686Z,23.23
2019-02-16T16:07:40.434Z,23.43
2019-02-16T16:10:35.159Z,26.07
2019-02-16T16:13:29.664Z,21.43
2019-02-16T16:16:09.445Z,21.77
2019-02-16T16:18:44.843Z,21.43
2019-02-16T16:21:31.015Z,21.47
2019-02-16T16:24:10.774Z,21.13
2019-02-16T16:26:59.346Z,24.00
2019-02-16T16:29:39.565Z,24.07
2019-02-16T16:32:37.394Z,29.80
2019-02-16T16:35:24.335Z,26.80
2019-02-16T16:38:04.949Z,30.20
2019-02-16T16:40:51.791Z,25.60
2019-02-16T16:43:39.223Z,27.37
2019-02-16T16:46:27.762Z,27.97
2019-02-16T16:49:14.987Z,29.77
2019-02-16T16:52:01.864Z,25.93
2019-02-16T16:54:53.286Z,30.90
2019-02-16T16:57:37.155Z,25.27
2019-02-16T17:00:30.210Z,28.33
2019-02-16T17:03:17.292Z,22.60
2019-02-16T17:06:08.927Z,26.67
2019-02-16T17:08:57.329Z,31.33
2019-02-16T17:11:54.030Z,26.27
2019-02-16T17:14:41.028Z,27.10
2019-02-16T17:17:41.698Z,25.30
2019-02-16T17:20:28.760Z,22.97
2019-02-16T17:23:17.317Z,23.70
2019-02-16T17:26:04.392Z,29.00
2019-02-16T17:29:04.835Z,25.43
2019-02-16T17:31:58.131Z,23.20
2019-02-16T17:34:46.694Z,31.03
2019-02-16T17:37:29.087Z,23.70
2019-02-16T17:40:04.220Z,26.03
2019-02-16T17:42:51.163Z,26.80
2019-02-16T17:45:45.643Z,28.20
2019-02-16T17:48:37.814Z,35.70
2019-02-16T17:51:35.166Z,26.83
2019-02-16T17:54:29.202Z,27.23
2019-02-16T17:57:32.974Z,35.57
2019-02-16T18:00:22.913Z,26.87
2019-02-16T18:03:20.244Z,35.53
2019-02-16T18:06:07.071Z,28.47
2019-02-16T18:08:55.634Z,29.47
2019-02-16T18:11:53.114Z,30.83
2019-02-16T18:14:33.725Z,33.23
2019-02-16T18:17:21.297Z,28.50
2019-02-16T18:19:59.228Z,33.03
2019-02-16T18:23:03.044Z,28.93
2019-02-16T18:26:03.547Z,30.83
2019-02-16T18:29:02.839Z,34.10
2019-02-16T18:31:46.519Z,37.90
2019-02-16T18:34:46.246Z,30.17
2019-02-16T18:37:25.778Z,28.43
2019-02-16T18:40:04.301Z,35.53
2019-02-16T18:42:50.034Z,41.50
2019-02-16T18:45:29.014Z,31.50
2019-02-16T18:48:20.659Z,34.17
2019-02-16T18:51:07.599Z,35.57
2019-02-16T18:53:58.964Z,36.43
2019-02-16T18:57:06.765Z,29.77
2019-02-16T18:59:53.706Z,32.87
2019-02-16T19:02:30.642Z,31.10
2019-02-16T19:05:17.858Z,24.33
2019-02-16T19:07:58.467Z,25.03
2019-02-16T19:10:44.154Z,25.20
2019-02-16T19:13:27.413Z,30.43
2019-02-16T19:16:12.042Z,25.23
2019-02-16T19:19:03.982Z,26.70
2019-02-16T19:21:55.840Z,24.93
2019-02-16T19:24:44.410Z,27.53
2019-02-16T19:27:23.806Z,25.20
2019-02-16T19:30:30.410Z,24.93
2019-02-16T19:33:21.899Z,27.40
2019-02-16T19:36:04.063Z,25.23
2019-02-16T19:39:01.532Z,26.17
2019-02-16T19:42:01.929Z,26.67
2019-02-16T19:44:49.248Z,28.37
2019-02-16T19:47:50.063Z,25.27
2019-02-16T19:50:47.643Z,26.70
2019-02-16T19:53:36.190Z,24.40
2019-02-16T19:56:11.235Z,23.00
2019-02-16T19:58:58.531Z,24.90
2019-02-16T20:01:45.606Z,29.97
2019-02-16T20:04:35.419Z,23.17
2019-02-16T20:07:29.846Z,24.80
2019-02-16T20:10:30.400Z,25.70
2019-02-16T20:13:36.997Z,26.33
2019-02-16T20:16:21.813Z,23.60
2019-02-16T20:19:06.668Z,30.33
2019-02-16T20:21:48.924Z,28.80
2019-02-16T20:24:40.247Z,22.33
2019-02-16T20:27:36.724Z,20.00
2019-02-16T20:30:04.162Z,28.27
2019-02-16T20:32:53.021Z,27.13
2019-02-16T20:35:59.622Z,26.33
2019-02-16T20:38:46.825Z,26.70
2019-02-16T20:41:34.330Z,22.67
2019-02-16T20:44:19.288Z,24.03
2019-02-16T20:47:07.871Z,28.87
2019-02-16T20:49:59.269Z,27.43
2019-02-16T20:52:53.678Z,24.90
2019-02-16T20:55:42.243Z,25.53
2019-02-16T20:58:29.467Z,25.63
2019-02-16T21:01:20.837Z,28.77
2019-02-16T21:04:02.330Z,22.90
2019-02-16T21:06:54.820Z,25.87
2019-02-16T21:09:39.022Z,24.00
2019-02-16T21:12:26.107Z,24.33
2019-02-16T21:15:10.460Z,23.40
2019-02-16T21:17:57.554Z,26.07
2019-02-16T21:20:38.512Z,23.77
2019-02-16T21:23:26.121Z,28.90
2019-02-16T21:26:10.434Z,24.50
2019-02-16T21:29:05.077Z,33.70
2019-02-16T21:31:53.928Z,32.03
2019-02-16T21:34:31.489Z,38.43
2019-02-16T21:37:25.878Z,31.03
2019-02-16T21:40:10.062Z,30.23
2019-02-16T21:42:46.418Z,31.60
2019-02-16T21:45:27.362Z,32.57
2019-02-16T21:48:14.414Z,30.13
2019-02-16T21:51:02.993Z,31.77
2019-02-16T21:53:51.584Z,36.23
2019-02-16T21:56:48.126Z,29.97
2019-02-16T21:59:35.404Z,30.33
2019-02-16T22:02:22.266Z,30.43
2019-02-16T22:05:02.534Z,27.57
2019-02-16T22:08:06.125Z,32.07
2019-02-16T22:10:53.183Z,33.57
2019-02-16T22:13:22.682Z,30.87
2019-02-16T22:15:52.161Z,29.77
2019-02-16T22:18:21.623Z,31.47
2019-02-16T22:20:51.063Z,33.53
2019-02-16T22:23:20.480Z,33.47
2019-02-16T22:25:49.934Z,33.87
2019-02-16T22:28:30.221Z,34.03
2019-02-16T22:30:50.522Z,32.30
2019-02-16T22:33:20.047Z,29.67
2019-02-16T22:35:49.457Z,35.70
2019-02-16T22:38:18.896Z,37.67
2019-02-16T22:40:48.365Z,37.40
2019-02-16T22:43:17.827Z,40.07
2019-02-16T22:45:47.294Z,33.23
2019-02-16T22:48:17.946Z,38.50
2019-02-16T22:50:47.450Z,33.23
2019-02-16T22:53:17.030Z,28.37
2019-02-16T22:55:46.564Z,30.90
2019-02-16T22:58:16.377Z,31.93
2019-02-16T23:00:49.322Z,30.73
2019-02-16T23:03:19.857Z,27.47
2019-02-16T23:05:49.410Z,30.50
2019-02-16T23:08:18.904Z,33.57
2019-02-16T23:10:48.454Z,39.33
2019-02-16T23:13:18.005Z,35.20
2019-02-16T23:15:47.531Z,30.40
2019-02-16T23:18:17.194Z,34.23
2019-02-16T23:20:47.745Z,32.83
2019-02-16T23:23:17.562Z,29.63
2019-02-16T23:25:47.087Z,32.33
2019-02-16T23:28:16.598Z,32.07
2019-02-16T23:30:46.087Z,33.07
2019-02-16T23:33:15.675Z,32.23
2019-02-16T23:35:45.256Z,35.73
2019-02-16T23:38:14.722Z,32.67
2019-02-16T23:40:44.198Z,34.33
2019-02-16T23:43:13.970Z,31.43
2019-02-16T23:45:43.468Z,31.00
2019-02-16T23:48:13.026Z,34.20
2019-02-16T23:50:42.522Z,30.77
2019-02-16T23:53:12.010Z,33.13
2019-02-16T23:55:41.429Z,30.20
2019-02-16T23:58:10.941Z,32.80
